SE Lincoln WX Station Historical Data
 
Daily Summary for February 28, 2020 Units:  English    Metric   Both
Daily Weekly Monthly Yearly Custom
  Current: High: Low: Average:
Temperature: 32.4 °F 33.2 °F 29.9 °F 31.3 °F
Dew Point: 27.2 °F 28 °F 24.1 °F 26 °F
Humidity: 81% 83% 77% 81%
Wind Speed: 0mph 0.3mph 0mph 0mph
Wind Gust: 0mph 5mph - -
WindCalm - - West
Pressure: 30.15 in 30.21 in 30.14 in -
Precipitation: 0.00 in      
Historical Graphs
 
 
Tabular Data for February 28, 2020
Time Temperature Dew Point Pressure Wind Wind Speed Wind Gust Humidity Rainfall Rate (Hourly) solar
00:04 30.9 °F 24.5 °F 30.21 in Calm     77% 0.00 in 0 W/m2
00:09 30.8 °F 24.4 °F 30.20 in Calm     77% 0.00 in 0 W/m2
00:14 30.7 °F 24.4 °F 30.20 in Calm     77% 0.00 in 0 W/m2
00:19 30.6 °F 24.3 °F 30.20 in Calm     77.1% 0.00 in 0 W/m2
00:24 30.5 °F 24.5 °F 30.20 in Calm     77.8% 0.00 in 0 W/m2
00:29 30.5 °F 24.5 °F 30.20 in Calm     78% 0.00 in 0 W/m2
00:34 30.4 °F 24.4 °F 30.19 in Calm     78% 0.00 in 0 W/m2
00:39 30.4 °F 24.4 °F 30.19 in Calm     78% 0.00 in 0 W/m2
00:44 30.3 °F 24.3 °F 30.19 in Calm     78% 0.00 in 0 W/m2
00:49 30.2 °F 24.2 °F 30.19 in Calm     78% 0.00 in 0 W/m2
00:54 30.1 °F 24.1 °F 30.19 in Calm     78% 0.00 in 0 W/m2
00:59 30 °F 24.1 °F 30.19 in Calm     78.4% 0.00 in 0 W/m2
01:04 29.9 °F 24.2 °F 30.19 in Calm     79% 0.00 in 0 W/m2
01:09 30 °F 24.3 °F 30.18 in Calm     79% 0.00 in 0 W/m2
01:14 30 °F 24.3 °F 30.18 in Calm     79% 0.00 in 0 W/m2
01:19 30 °F 24.3 °F 30.18 in Calm     79% 0.00 in 0 W/m2
01:24 30.1 °F 24.5 °F 30.19 in Calm     79.5% 0.00 in 0 W/m2
01:29 30.2 °F 24.8 °F 30.19 in Calm     80% 0.00 in 0 W/m2
01:34 30.3 °F 24.9 °F 30.19 in Calm     80% 0.00 in 0 W/m2
01:39 30.4 °F 25 °F 30.18 in Calm     80% 0.00 in 0 W/m2
01:44 30.5 °F 25.1 °F 30.18 in Calm     80% 0.00 in 0 W/m2
01:49 30.5 °F 25.1 °F 30.18 in Calm     80% 0.00 in 0 W/m2
01:54 30.6 °F 25.3 °F 30.17 in Calm     80.4% 0.00 in 0 W/m2
01:59 30.6 °F 25.5 °F 30.17 in Calm     81% 0.00 in 0 W/m2
02:04 30.5 °F 25.2 °F 30.17 in Calm     80.3% 0.00 in 0 W/m2
02:09 30.5 °F 25.4 °F 30.17 in Calm     81% 0.00 in 0 W/m2
02:14 30.4 °F 25.3 °F 30.17 in Calm     81% 0.00 in 0 W/m2
02:19 30.4 °F 25.3 °F 30.17 in Calm     81% 0.00 in 0 W/m2
02:24 30.3 °F 25.2 °F 30.17 in Calm     81% 0.00 in 0 W/m2
02:29 30.3 °F 25.2 °F 30.16 in Calm     81.1% 0.00 in 0 W/m2
02:34 30.3 °F 25.4 °F 30.16 in Calm     81.6% 0.00 in 0 W/m2
02:39 30.3 °F 25.5 °F 30.16 in Calm   2 mph 82% 0.00 in 0 W/m2
02:44 30.3 °F 25.5 °F 30.16 in WSW 0.3 mph 4 mph 82% 0.00 in 0 W/m2
02:49 30.4 °F 25.6 °F 30.16 in WSW 0.1 mph 4 mph 82% 0.00 in 0 W/m2
02:54 30.5 °F 25.7 °F 30.16 in Calm     82% 0.00 in 0 W/m2
02:59 30.6 °F 25.8 °F 30.16 in Calm     82% 0.00 in 0 W/m2
03:04 30.8 °F 26.1 °F 30.16 in West 0.1 mph 2 mph 82.4% 0.00 in 0 W/m2
03:09 30.9 °F 26.4 °F 30.16 in West 0.2 mph 4 mph 83% 0.00 in 0 W/m2
03:14 31 °F 26.5 °F 30.16 in West 0.1 mph 1 mph 83% 0.00 in 0 W/m2
03:19 31.2 °F 26.5 °F 30.16 in Calm   1 mph 82.6% 0.00 in 0 W/m2
03:24 31.3 °F 26.4 °F 30.15 in Calm     82% 0.00 in 0 W/m2
03:29 31.4 °F 26.6 °F 30.15 in West 0.1 mph 1 mph 82% 0.00 in 0 W/m2
03:34 31.6 °F 26.9 °F 30.15 in WSW 0.2 mph 5 mph 82.9% 0.00 in 0 W/m2
03:39 31.7 °F 26.8 °F 30.15 in West 0.1 mph 2 mph 82% 0.00 in 0 W/m2
03:44 31.9 °F 27 °F 30.15 in Calm     82% 0.00 in 0 W/m2
03:49 32 °F 27.1 °F 30.15 in Calm     82% 0.00 in 0 W/m2
03:54 32.1 °F 27.2 °F 30.15 in Calm     82% 0.00 in 0 W/m2
03:59 32.2 °F 27.3 °F 30.15 in Calm   1 mph 82% 0.00 in 0 W/m2
04:04 32.4 °F 27.5 °F 30.15 in Calm     82% 0.00 in 0 W/m2
04:09 32.5 °F 27.6 °F 30.14 in Calm     82% 0.00 in 0 W/m2
04:14 32.6 °F 27.7 °F 30.15 in Calm     82% 0.00 in 0 W/m2
04:19 32.8 °F 27.9 °F 30.14 in Calm     82% 0.00 in 0 W/m2
04:24 32.9 °F 28 °F 30.14 in Calm     82% 0.00 in 0 W/m2
04:29 33.1 °F 27.9 °F 30.14 in Calm     81.2% 0.00 in 0 W/m2
04:34 33.1 °F 27.9 °F 30.14 in Calm     81% 0.00 in 0 W/m2
04:39 33.2 °F 28 °F 30.14 in Calm     81% 0.00 in 0 W/m2
04:44 33.2 °F 28 °F 30.14 in Calm     81% 0.00 in 0 W/m2
04:49 33.2 °F 28 °F 30.14 in Calm     81% 0.00 in 0 W/m2
04:54 33.2 °F 28 °F 30.14 in Calm     81% 0.00 in 0 W/m2
04:59 33.1 °F 27.9 °F 30.15 in Calm     81% 0.00 in 0 W/m2
05:04 33.1 °F 27.9 °F 30.15 in Calm     81% 0.00 in 0 W/m2
05:09 33 °F 27.8 °F 30.15 in Calm     81% 0.00 in 0 W/m2
05:14 32.9 °F 27.7 °F 30.15 in Calm     81% 0.00 in 0 W/m2
05:19 32.8 °F 27.6 °F 30.15 in WSW 0.1 mph 2 mph 81% 0.00 in 0 W/m2
05:24 32.7 °F 27.5 °F 30.15 in Calm     81% 0.00 in 0 W/m2
05:29 32.6 °F 27.4 °F 30.15 in Calm     81% 0.00 in 0 W/m2
05:34 32.5 °F 27.3 °F 30.15 in Calm     81% 0.00 in 0 W/m2
05:39 32.4 °F 27.2 °F 30.15 in Calm     81% 0.00 in 0 W/m2
66th and South
Compliments of Weather Underground - 4 mb